Time;durP1;ratioP1;P1;durP2;ratioP2;P2;SDS_P1;SDS_P2;PMS_P1;PMS_P2;Temp;Humidity;BMP_temperature;BMP_pressure;BME280_temperature;BME280_humidity;BME280_pressure;Samples;Min_cycle;Max_cycle;Signal;HPM_P1;HPM_P2
2021/04/18 00:01:40;;;;;;;31.25;20.10;;;5.40;73.40;;;4.37;57.63;95060.13;5036670;28;20219;-86
2021/04/18 00:04:08;;;;;;;32.85;21.25;;;5.30;73.20;;;4.33;57.84;95059.63;5019942;28;20391;-86
2021/04/18 00:06:36;;;;;;;38.35;23.13;;;5.30;73.30;;;4.26;57.98;95056.81;5036284;28;20651;-86
2021/04/18 00:09:06;;;;;;;39.45;24.20;;;5.30;73.40;;;4.22;58.09;95055.47;5034916;28;20203;-85
2021/04/18 00:11:32;;;;;;;34.20;22.65;;;5.20;73.50;;;4.20;58.32;95054.81;5052871;28;20193;-86
2021/04/18 00:13:59;;;;;;;34.55;21.20;;;5.20;73.50;;;4.21;58.01;95061.66;5036218;28;20239;-86
2021/04/18 00:16:26;;;;;;;33.90;21.25;;;5.20;73.60;;;4.20;58.12;95057.41;5028250;28;20254;-86
2021/04/18 00:18:53;;;;;;;34.90;20.50;;;5.10;73.70;;;4.21;58.02;95051.25;5049537;28;20695;-85
2021/04/18 00:21:20;;;;;;;34.47;21.65;;;5.10;73.80;;;4.23;57.99;95056.28;5034634;28;20292;-86
2021/04/18 00:23:46;;;;;;;36.13;23.00;;;5.10;73.80;;;4.19;58.74;95041.97;5019824;28;20225;-85
2021/04/18 00:26:13;;;;;;;42.15;26.58;;;5.20;73.90;;;4.22;59.50;95046.88;5036063;28;20291;-86
2021/04/18 00:28:40;;;;;;;38.85;24.55;;;5.20;74.30;;;4.21;59.19;95045.22;5064067;28;20262;-85
2021/04/18 00:31:07;;;;;;;38.05;24.02;;;5.10;74.20;;;4.22;59.02;95041.69;5055673;28;20199;-86
2021/04/18 00:33:33;;;;;;;35.47;22.50;;;5.10;74.20;;;4.23;59.23;95051.91;5039312;28;20251;-86
2021/04/18 00:36:01;;;;;;;38.80;22.38;;;5.10;74.30;;;4.22;58.83;95046.88;5055712;28;20269;-85
2021/04/18 00:38:27;;;;;;;37.50;22.90;;;5.10;74.30;;;4.27;58.97;95050.66;5036991;28;20346;-86
2021/04/18 00:40:54;;;;;;;35.75;22.75;;;5.10;74.40;;;4.30;59.02;95050.34;5039135;28;20249;-86
2021/04/18 00:43:20;;;;;;;39.67;24.25;;;5.10;74.40;;;4.33;59.39;95050.06;5055692;28;20273;-86
2021/04/18 00:45:47;;;;;;;38.88;24.10;;;5.20;74.60;;;4.35;59.74;95047.31;5038943;28;20208;-86
2021/04/18 00:48:14;;;;;;;42.47;24.88;;;5.20;74.80;;;4.38;59.99;95051.38;5054933;28;20223;-86
2021/04/18 00:50:41;;;;;;;44.45;26.98;;;5.20;74.80;;;4.41;60.39;95051.09;5039006;28;20230;-86
2021/04/18 00:53:08;;;;;;;43.40;25.98;;;5.30;75.10;;;4.42;60.86;95053.53;5055630;28;20215;-86
2021/04/18 00:55:42;;;;;;;41.58;25.80;;;5.30;75.20;;;4.44;60.68;95045.59;5055522;28;20646;-86
2021/04/18 00:58:11;;;;;;;40.95;24.40;;;5.30;75.40;;;4.48;60.71;95049.53;5026668;28;20220;-86
2021/04/18 01:00:39;;;;;;;44.25;27.13;;;5.30;75.30;;;4.48;61.44;95052.13;5042813;28;20287;-86
2021/04/18 01:03:09;;;;;;;43.53;26.92;;;5.30;75.50;;;4.43;61.95;95044.78;5038866;28;20719;-85
2021/04/18 01:05:38;;;;;;;42.33;27.00;;;5.40;75.70;;;4.46;61.99;95052.25;5052718;28;20287;-86
2021/04/18 01:08:09;;;;;;;41.55;25.67;;;5.40;75.80;;;4.46;62.11;95044.47;5035239;28;20247;-86
2021/04/18 01:10:37;;;;;;;39.45;24.88;;;5.40;76.70;;;4.48;61.63;95044.34;5018762;28;20291;-86
2021/04/18 01:13:05;;;;;;;43.35;25.73;;;5.40;75.70;;;4.51;61.24;95043.22;5018545;28;20216;-86
2021/04/18 01:15:32;;;;;;;36.65;22.92;;;5.40;75.70;;;4.52;61.30;95040.47;5034705;28;20204;-86
2021/04/18 01:17:59;;;;;;;40.70;25.55;;;5.40;75.70;;;4.55;61.20;95041.94;5018086;28;20303;-86
2021/04/18 01:20:26;;;;;;;40.55;24.25;;;5.40;75.70;;;4.52;61.06;95037.03;5034740;28;20671;-85
2021/04/18 01:23:14;;;;;;;38.22;24.00;;;5.40;75.70;;;4.57;61.21;95038.22;5029108;28;20220;-86
2021/04/18 01:26:08;;;;;;;38.78;23.55;;;5.40;75.60;;;4.59;60.76;95036.28;5058311;28;20204;-86
2021/04/18 01:28:36;;;;;;;39.15;23.65;;;5.40;75.60;;;4.61;60.97;95047.34;5054825;28;20226;-86
2021/04/18 01:31:04;;;;;;;43.25;25.58;;;5.40;75.50;;;4.62;60.87;95037.78;5054581;28;20307;-86
2021/04/18 01:33:36;;;;;;;38.20;24.35;;;5.50;75.70;;;4.62;60.74;95041.16;5031150;28;21460;-86
2021/04/18 01:36:05;;;;;;;41.60;24.33;;;5.40;75.60;;;4.66;60.79;95041.69;5051098;28;20193;-86
2021/04/18 01:38:33;;;;;;;40.58;24.27;;;5.40;75.60;;;4.68;60.71;95041.56;5034320;28;20224;-86
2021/04/18 01:41:01;;;;;;;40.78;24.40;;;5.50;76.50;;;4.70;60.76;95040.44;5034499;28;20199;-85
2021/04/18 01:43:28;;;;;;;44.88;26.20;;;5.50;75.60;;;4.71;60.61;95036.03;5034760;28;20315;-86
2021/04/18 01:45:56;;;;;;;41.88;24.92;;;5.50;75.60;;;4.71;60.64;95042.06;5037830;28;20203;-86
2021/04/18 01:48:23;;;;;;;44.13;25.00;;;5.50;75.60;;;4.70;60.47;95029.22;5037792;28;20228;-85
2021/04/18 01:50:52;;;;;;;42.40;26.17;;;5.50;75.60;;;4.72;60.84;95041.06;5038320;28;20247;-86
2021/04/18 01:53:21;;;;;;;44.67;25.33;;;5.50;75.70;;;4.73;60.57;95026.31;5025914;28;20240;-86
2021/04/18 01:55:52;;;;;;;43.85;24.75;;;5.60;75.70;;;4.73;61.11;95029.72;5018456;28;20204;-86
2021/04/18 01:58:19;;;;;;;42.92;26.02;;;5.50;75.60;;;4.74;60.87;95036.56;5013282;28;20224;-85
2021/04/18 02:00:54;;;;;;;41.75;24.83;;;5.50;75.70;;;4.73;60.76;95026.31;5035609;28;20199;-85
2021/04/18 02:03:22;;;;;;;45.38;26.67;;;5.50;75.70;;;4.76;60.78;95028.59;5017222;28;20255;-85
2021/04/18 02:05:50;;;;;;;48.70;27.63;;;5.60;75.80;;;4.73;61.34;95028.91;5034224;28;20195;-85
2021/04/18 02:08:20;;;;;;;40.55;24.10;;;5.60;76.80;;;4.72;60.89;95022.88;5020497;28;20216;-86
2021/04/18 02:10:51;;;;;;;41.22;25.13;;;5.60;75.90;;;4.74;60.95;95022.75;5016328;28;20199;-85
2021/04/18 02:13:18;;;;;;;43.83;26.13;;;5.60;75.90;;;4.75;61.01;95020.00;5016669;28;20213;-85
2021/04/18 02:16:14;;;;;;;43.42;26.15;;;5.60;76.00;;;4.76;61.37;95023.41;5029744;28;20287;-85
2021/04/18 02:18:52;;;;;;;46.65;27.13;;;5.60;76.00;;;4.74;61.57;95020.16;5040304;28;20219;-86
2021/04/18 02:21:19;;;;;;;45.42;24.85;;;5.60;76.00;;;4.73;61.52;95016.72;5052955;28;20277;-85
2021/04/18 02:23:46;;;;;;;42.70;26.40;;;5.60;76.10;;;4.74;61.42;95015.75;5033550;28;20200;-86
2021/04/18 02:26:13;;;;;;;43.15;25.48;;;5.60;76.00;;;4.76;61.09;95015.59;5039486;28;20225;-85
2021/04/18 02:28:44;;;;;;;41.97;24.15;;;5.60;76.10;;;4.76;61.11;95016.44;5031202;28;20726;-85
2021/04/18 02:31:14;;;;;;;38.42;23.05;;;5.70;76.10;;;4.76;60.97;95008.63;5024404;28;20192;-84
2021/04/18 02:33:42;;;;;;;44.33;25.67;;;5.60;76.00;;;4.78;61.36;95008.47;5040409;28;20198;-85
2021/04/18 02:36:12;;;;;;;42.60;24.33;;;5.60;76.00;;;4.82;60.97;95009.78;5033755;28;20548;-85
2021/04/18 02:38:40;;;;;;;40.00;24.50;;;5.70;76.10;;;4.84;60.76;95009.66;5008746;28;20248;-85
2021/04/18 02:41:08;;;;;;;41.65;24.02;;;5.70;76.10;;;4.85;60.65;95006.91;5034073;28;20291;-85
2021/04/18 02:43:36;;;;;;;36.80;22.45;;;5.70;76.10;;;4.88;60.62;95005.78;5034927;28;20308;-85
2021/04/18 02:46:04;;;;;;;38.33;22.25;;;5.70;76.10;;;4.88;60.56;95011.81;5024814;28;20212;-85
2021/04/18 02:48:31;;;;;;;38.83;24.48;;;5.60;75.90;;;4.89;60.83;95005.59;5035140;28;20274;-86
2021/04/18 02:50:58;;;;;;;39.22;24.35;;;5.60;76.00;;;4.89;61.09;94997.81;5025076;28;20232;-86
2021/04/18 02:53:25;;;;;;;37.90;23.05;;;5.70;76.00;;;4.90;60.57;94996.84;5018038;28;20220;-86
2021/04/18 02:55:52;;;;;;;40.13;24.13;;;5.70;76.10;;;4.90;60.76;94993.44;5049617;28;20291;-86
2021/04/18 02:58:34;;;;;;;38.47;24.20;;;5.70;76.00;;;4.91;61.02;94992.47;5035037;28;20711;-85
2021/04/18 03:01:03;;;;;;;38.60;23.48;;;5.70;76.00;;;4.92;60.70;94999.28;5016572;28;20201;-85
2021/04/18 03:03:32;;;;;;;40.70;24.02;;;5.70;76.00;;;4.92;60.65;94997.53;5035997;28;20760;-85
2021/04/18 03:05:59;;;;;;;34.22;22.45;;;5.70;76.10;;;4.93;60.51;94993.13;5036180;28;20662;-86
2021/04/18 03:08:28;;;;;;;37.70;22.70;;;5.70;76.00;;;4.93;60.68;94993.94;5052868;28;20219;-86
2021/04/18 03:10:55;;;;;;;40.33;24.83;;;5.70;76.10;;;4.95;60.57;94991.19;5018092;28;20693;-85
2021/04/18 03:13:23;;;;;;;40.85;24.25;;;5.70;76.00;;;4.93;60.85;94983.56;5022852;28;20228;-85
2021/04/18 03:15:51;;;;;;;37.83;23.70;;;5.70;76.10;;;4.95;60.60;94980.78;5048218;28;20207;-86
2021/04/18 03:18:18;;;;;;;42.47;24.30;;;5.80;76.10;;;4.95;60.82;94983.41;5000675;28;20678;-85
2021/04/18 03:20:48;;;;;;;35.63;22.13;;;5.80;76.10;;;4.97;60.46;94990.06;5033977;28;20663;-86
2021/04/18 03:23:17;;;;;;;36.25;22.10;;;5.70;76.00;;;4.97;60.23;94982.25;5033525;28;20306;-85
2021/04/18 03:25:49;;;;;;;40.45;23.95;;;5.80;76.10;;;4.99;60.62;94984.69;5041592;28;20212;-86
2021/04/18 03:28:18;;;;;;;40.08;24.15;;;5.70;76.10;;;5.00;60.32;94985.53;5020313;28;20225;-85
2021/04/18 03:30:49;;;;;;;41.42;22.92;;;5.70;76.00;;;5.01;59.99;94987.97;5003346;28;20212;-86
2021/04/18 03:33:20;;;;;;;40.67;23.35;;;5.70;76.00;;;5.01;60.51;94985.38;5017414;28;20277;-84
2021/04/18 03:35:52;;;;;;;36.75;22.80;;;5.70;76.00;;;5.02;60.75;94989.59;5014620;28;20196;-85
2021/04/18 03:38:19;;;;;;;39.08;23.42;;;5.80;76.00;;;5.03;60.75;94987.81;5014161;28;20227;-85
2021/04/18 03:40:47;;;;;;;37.42;22.02;;;5.80;76.00;;;5.01;60.47;94989.78;5022178;28;20200;-86
2021/04/18 03:43:14;;;;;;;40.08;24.58;;;5.80;76.00;;;5.02;60.51;94986.19;5034994;28;20227;-86
2021/04/18 03:45:42;;;;;;;40.40;23.98;;;5.80;76.00;;;5.02;60.66;94988.81;5052083;28;20192;-86
2021/04/18 03:48:10;;;;;;;39.92;24.88;;;5.80;76.10;;;5.02;60.59;94988.81;5034193;28;20220;-85
2021/04/18 03:50:38;;;;;;;43.13;24.75;;;5.80;76.10;;;5.01;60.86;94989.78;5031504;28;20205;-86
2021/04/18 03:53:18;;;;;;;40.10;24.92;;;5.80;76.10;;;4.95;61.00;94980.78;5031908;28;20262;-86
2021/04/18 03:55:50;;;;;;;39.78;25.35;;;5.80;76.10;;;4.96;60.87;94980.63;5032311;28;20230;-86
2021/04/18 03:58:23;;;;;;;45.22;26.48;;;5.80;76.20;;;4.97;61.30;94984.88;5017501;28;20228;-86
2021/04/18 04:00:57;;;;;;;39.83;24.50;;;5.80;76.20;;;4.95;61.04;94980.78;5033282;28;20196;-86
2021/04/18 04:03:26;;;;;;;37.47;24.13;;;5.80;76.20;;;4.95;61.11;94989.41;5015986;28;20221;-86
2021/04/18 04:05:55;;;;;;;38.55;24.45;;;5.80;76.20;;;4.95;60.87;94986.00;5032205;28;20200;-86
2021/04/18 04:08:26;;;;;;;39.08;24.48;;;5.80;76.20;;;4.96;60.96;94993.63;5016441;28;20227;-86
2021/04/18 04:10:53;;;;;;;42.47;24.83;;;5.80;76.20;;;4.99;60.85;94992.50;5031937;28;20235;-86
2021/04/18 04:13:21;;;;;;;40.97;24.35;;;5.70;76.20;;;5.00;60.81;94995.94;5019068;28;20249;-86
2021/04/18 04:15:52;;;;;;;36.67;22.30;;;5.70;76.20;;;5.00;60.80;94994.13;5051701;28;20249;-86
2021/04/18 04:18:19;;;;;;;40.20;24.83;;;5.80;76.20;;;4.99;61.25;94991.69;5035641;28;20223;-86
2021/04/18 04:20:53;;;;;;;39.72;24.00;;;5.80;76.30;;;5.01;61.00;94992.38;5048370;28;20298;-86
2021/04/18 04:23:41;;;;;;;39.38;24.20;;;5.80;76.30;;;5.02;60.94;94986.19;5019669;28;20224;-86
2021/04/18 04:26:08;;;;;;;39.38;25.00;;;5.80;76.30;;;5.00;61.14;94983.75;5032414;28;20206;-86
2021/04/18 04:28:36;;;;;;;39.78;23.65;;;5.80;76.40;;;5.01;60.88;94990.56;5031282;28;20220;-86
2021/04/18 04:31:03;;;;;;;39.03;22.45;;;5.80;76.40;;;5.07;61.10;94992.53;5048774;28;20204;-86
2021/04/18 04:33:37;;;;;;;38.13;22.27;;;5.80;76.40;;;5.09;60.88;94995.81;5015520;28;20225;-86
2021/04/18 04:36:07;;;;;;;36.33;21.98;;;5.90;76.60;;;5.12;60.64;94992.09;5015873;28;20207;-86
2021/04/18 04:38:36;;;;;;;36.40;22.52;;;5.80;76.40;;;5.15;60.53;94990.97;5015108;28;20584;-86
2021/04/18 04:41:04;;;;;;;40.33;22.77;;;5.80;76.40;;;5.15;60.71;94990.97;5035225;28;20216;-86
2021/04/18 04:43:32;;;;;;;38.50;22.48;;;5.90;76.40;;;5.17;60.95;94991.63;5024090;28;20220;-86
2021/04/18 04:46:00;;;;;;;34.10;20.67;;;5.90;76.40;;;5.20;60.68;94997.31;5019297;28;20219;-86
2021/04/18 04:48:27;;;;;;;36.85;22.13;;;5.90;76.40;;;5.20;60.76;94994.72;5019892;28;20299;-86
2021/04/18 04:50:54;;;;;;;35.20;22.23;;;6.00;76.50;;;5.28;60.52;95001.75;5035485;28;20735;-85
2021/04/18 04:53:21;;;;;;;38.65;23.65;;;5.90;76.40;;;5.28;60.57;94994.75;5051898;28;20224;-86
2021/04/18 04:55:48;;;;;;;38.22;22.98;;;6.00;76.50;;;5.32;60.40;95003.03;5035592;28;20227;-85
2021/04/18 04:58:15;;;;;;;39.40;23.98;;;6.00;76.40;;;5.36;61.11;94995.75;5038265;28;20705;-86
2021/04/18 05:00:42;;;;;;;34.38;21.83;;;6.10;76.50;;;5.39;60.53;94998.84;5038665;28;20236;-85
2021/04/18 05:03:09;;;;;;;36.13;22.73;;;6.10;76.50;;;5.40;60.66;94997.06;5055000;28;20216;-84
2021/04/18 05:05:37;;;;;;;35.80;21.83;;;6.10;76.50;;;5.44;60.30;94998.38;5039320;28;20204;-85
2021/04/18 05:08:04;;;;;;;35.35;22.00;;;6.10;76.50;;;5.47;60.48;95000.69;5034191;28;20454;-85
2021/04/18 05:10:31;;;;;;;35.42;21.35;;;6.10;76.40;;;5.52;60.31;95008.81;5034855;28;20200;-85
2021/04/18 05:12:58;;;;;;;30.45;19.45;;;6.20;76.50;;;5.51;60.79;94996.78;5018616;28;20212;-86
2021/04/18 05:15:25;;;;;;;38.22;21.98;;;6.20;76.50;;;5.60;60.36;95008.00;5035165;28;20215;-85
2021/04/18 05:17:52;;;;;;;36.13;20.27;;;6.20;77.30;;;5.55;60.41;94999.88;5034820;28;20295;-85
2021/04/18 05:20:20;;;;;;;36.38;22.25;;;6.20;76.40;;;5.61;60.18;94994.88;5034909;28;20227;-86
2021/04/18 05:22:47;;;;;;;33.00;21.00;;;6.30;76.50;;;5.61;60.37;94989.66;5034534;28;20238;-85
2021/04/18 05:25:15;;;;;;;42.40;24.15;;;6.30;76.40;;;5.65;60.28;94995.38;5037842;28;20196;-85
2021/04/18 05:27:43;;;;;;;39.92;24.15;;;6.30;76.30;;;5.67;60.37;94997.81;5071041;28;20223;-85
2021/04/18 05:30:11;;;;;;;39.00;23.83;;;6.40;76.40;;;5.70;60.17;95003.50;5033279;28;20258;-86
2021/04/18 05:32:38;;;;;;;43.05;26.08;;;6.40;76.30;;;5.70;60.36;95000.91;5018207;28;20679;-86
2021/04/18 05:35:09;;;;;;;48.55;28.02;;;6.40;76.30;;;5.66;60.19;94991.75;5034144;28;20287;-85
2021/04/18 05:37:36;;;;;;;41.05;25.70;;;6.40;76.20;;;5.72;60.32;95000.72;5034421;28;20783;-85
2021/04/18 05:40:05;;;;;;;43.05;26.08;;;6.40;76.20;;;5.71;60.61;94997.34;5034129;28;20223;-85
2021/04/18 05:42:32;;;;;;;44.10;25.52;;;6.50;76.30;;;5.71;60.82;94999.09;5034897;28;20208;-85
2021/04/18 05:44:59;;;;;;;43.08;25.60;;;6.50;76.30;;;5.70;60.73;94995.69;5029986;28;20214;-86
2021/04/18 05:47:25;;;;;;;52.38;30.15;;;6.50;76.30;;;5.70;61.25;95005.28;5034248;28;20236;-85
2021/04/18 05:49:52;;;;;;;44.83;27.77;;;6.50;76.40;;;5.68;61.50;95008.03;5018197;28;20255;-85
2021/04/18 05:52:20;;;;;;;45.45;27.50;;;6.50;76.50;;;5.68;61.19;95002.84;5017869;28;20228;-86
2021/04/18 05:54:47;;;;;;;46.78;27.88;;;6.50;76.60;;;5.68;61.54;95002.03;5027230;28;20204;-85
2021/04/18 05:57:13;;;;;;;44.85;27.33;;;6.50;76.60;;;5.72;61.80;95003.34;5037091;28;20215;-84
2021/04/18 05:59:40;;;;;;;48.38;27.67;;;6.50;76.60;;;5.73;61.51;95004.97;5036757;28;20227;-84
2021/04/18 06:02:07;;;;;;;43.47;26.05;;;6.60;76.70;;;5.76;60.72;95002.88;5053378;28;20203;-83
2021/04/18 06:04:37;;;;;;;46.10;27.60;;;6.50;76.70;;;5.80;61.57;95003.34;5033754;28;20671;-84
2021/04/18 06:07:05;;;;;;;45.75;26.63;;;6.60;76.70;;;5.84;61.27;94996.06;5017076;28;20691;-83
2021/04/18 06:09:32;;;;;;;44.95;27.42;;;6.60;76.80;;;5.90;61.26;94995.41;5016956;28;20624;-83
2021/04/18 06:11:59;;;;;;;43.65;26.60;;;6.60;76.80;;;5.99;61.35;95004.06;5000608;28;20227;-84
2021/04/18 06:14:25;;;;;;;42.97;26.13;;;6.60;76.90;;;6.08;61.16;95003.09;5029815;28;20199;-82
2021/04/18 06:16:53;;;;;;;43.58;26.50;;;6.60;76.90;;;6.15;61.37;95011.06;5052908;28;20260;-84
2021/04/18 06:19:28;;;;;;;45.80;27.73;;;6.70;77.00;;;6.19;61.13;95005.38;5036704;28;20226;-84
2021/04/18 06:21:58;;;;;;;48.38;27.83;;;6.80;77.00;;;6.24;61.42;95002.31;5033066;28;20220;-85
2021/04/18 06:24:25;;;;;;;44.83;27.92;;;6.90;77.00;;;6.30;61.26;95006.84;5049601;28;20204;-83
2021/04/18 06:26:52;;;;;;;43.88;26.85;;;6.90;76.90;;;6.35;61.13;95001.97;5016489;28;20228;-84
2021/04/18 06:29:19;;;;;;;45.38;28.17;;;7.00;76.80;;;6.37;61.04;95004.41;5033101;28;20203;-84
2021/04/18 06:31:46;;;;;;;48.17;28.48;;;7.00;76.80;;;6.35;61.11;94999.38;5016388;28;20240;-84
2021/04/18 06:34:13;;;;;;;49.80;29.63;;;7.10;76.70;;;6.34;61.21;94996.94;5067320;28;20196;-84
2021/04/18 06:36:40;;;;;;;45.92;27.90;;;7.10;76.70;;;6.40;60.69;94997.06;5032795;28;20300;-85
2021/04/18 06:39:07;;;;;;;45.13;27.40;;;7.10;76.70;;;6.49;60.95;94992.66;5049079;28;20217;-84
2021/04/18 06:41:35;;;;;;;41.40;26.13;;;7.20;76.80;;;6.55;61.04;95001.63;5033524;28;20205;-84
2021/04/18 06:44:03;;;;;;;43.67;27.50;;;7.10;76.70;;;6.63;60.87;94998.19;5032416;28;20193;-84
2021/04/18 06:46:31;;;;;;;42.72;27.05;;;7.30;76.70;;;6.65;60.53;94997.06;5000204;28;20208;-84
2021/04/18 06:48:59;;;;;;;45.47;28.02;;;7.30;76.70;;;6.71;60.46;94999.00;5027543;28;20251;-85
2021/04/18 06:51:26;;;;;;;38.47;23.80;;;7.30;76.60;;;6.79;60.40;94994.78;5028907;28;20215;-83
2021/04/18 06:53:53;;;;;;;43.90;26.65;;;7.40;76.70;;;6.87;60.42;94990.34;5021690;28;20196;-84
2021/04/18 06:56:19;;;;;;;45.08;27.45;;;7.40;77.50;;;6.92;60.24;94989.84;5036427;28;20250;-84
2021/04/18 06:58:58;;;;;;;41.38;25.73;;;7.50;76.70;;;6.99;60.47;94979.56;5029345;28;20189;-85
2021/04/18 07:01:25;;;;;;;39.85;26.35;;;7.50;76.70;;;7.16;60.28;94988.94;5031377;28;20193;-85
2021/04/18 07:04:07;;;;;;;40.65;25.33;;;7.60;76.80;;;7.28;60.34;94988.59;5028848;28;20288;-82
2021/04/18 07:06:38;;;;;;;39.83;25.55;;;7.70;76.80;;;7.39;60.05;94990.81;5017760;28;20255;-83
2021/04/18 07:09:04;;;;;;;38.88;25.80;;;7.80;76.90;;;7.49;60.12;94994.03;5034152;28;20716;-84
2021/04/18 07:11:54;;;;;;;40.22;26.33;;;7.90;76.90;;;7.57;59.74;94992.34;5038968;28;20205;-83
2021/04/18 07:14:30;;;;;;;41.80;26.50;;;8.00;76.60;;;7.65;59.61;94984.50;5033454;28;20196;-83
2021/04/18 07:17:13;;;;;;;38.40;24.83;;;8.00;76.50;;;7.75;59.45;94989.50;5028618;28;20213;-83
2021/04/18 07:19:47;;;;;;;35.65;23.88;;;8.10;76.50;;;7.88;59.32;94987.13;5020232;28;20223;-83
2021/04/18 07:22:29;;;;;;;38.55;25.13;;;8.30;76.60;;;7.94;59.26;94970.75;5028371;28;20338;-83
2021/04/18 07:24:59;;;;;;;34.90;23.38;;;8.40;76.60;;;8.09;59.41;94983.91;5000805;28;20196;-81
2021/04/18 07:27:52;;;;;;;36.33;23.83;;;8.40;76.60;;;8.25;59.11;94989.97;5022242;28;20231;-83
2021/04/18 07:30:24;;;;;;;35.10;23.38;;;8.50;76.20;;;8.31;58.85;94976.22;5025618;28;20195;-84
2021/04/18 07:33:06;;;;;;;32.85;21.88;;;8.60;76.30;;;8.48;59.09;94976.91;5022873;28;20246;-83
2021/04/18 07:35:39;;;;;;;31.48;22.20;;;8.70;76.20;;;8.57;58.88;94982.88;5038256;28;20192;-83
2021/04/18 07:38:23;;;;;;;36.45;23.73;;;8.80;76.00;;;8.63;58.58;94982.19;5027625;28;20247;-84
2021/04/18 07:40:54;;;;;;;35.30;23.85;;;8.90;75.80;;;8.68;58.25;94981.63;5027700;28;20226;-83
2021/04/18 07:43:22;;;;;;;34.80;23.33;;;9.00;75.80;;;8.73;58.02;94976.72;5041969;28;20223;-83
2021/04/18 07:45:51;;;;;;;33.45;22.65;;;9.00;75.70;;;8.79;58.25;94986.44;5013729;28;20733;-84
2021/04/18 07:48:20;;;;;;;35.00;23.55;;;9.10;75.50;;;8.86;57.91;94982.13;5035706;28;20246;-83
2021/04/18 07:50:48;;;;;;;34.05;22.15;;;9.20;75.30;;;8.93;57.69;94982.22;5049533;28;20207;-85
2021/04/18 07:53:18;;;;;;;32.05;20.42;;;9.20;75.20;;;8.97;57.97;94984.28;5054024;28;20303;-86
2021/04/18 07:55:46;;;;;;;34.22;22.10;;;9.30;75.30;;;9.03;57.34;94987.19;5005167;28;20209;-86
2021/04/18 07:58:13;;;;;;;33.30;22.40;;;9.30;75.30;;;9.06;57.33;94987.63;5010967;28;20221;-86
2021/04/18 08:00:40;;;;;;;33.50;22.30;;;9.40;75.40;;;9.05;57.01;94995.66;5011300;28;20228;-87
2021/04/18 08:03:07;;;;;;;30.27;20.75;;;9.40;76.20;;;9.08;57.28;94992.66;5042502;28;20315;-84
2021/04/18 08:05:35;;;;;;;32.00;22.58;;;9.50;75.40;;;9.09;57.04;94994.31;5028012;28;20658;-85
2021/04/18 08:08:08;;;;;;;32.20;22.30;;;9.50;75.10;;;9.11;57.04;94987.09;5015780;28;20223;-86
2021/04/18 08:10:50;;;;;;;36.63;24.13;;;9.50;75.00;;;9.07;56.60;94989.25;5043464;28;20196;-86
2021/04/18 08:13:20;;;;;;;37.42;24.15;;;9.50;74.70;;;9.08;56.85;94992.66;5016233;28;20306;-86
2021/04/18 08:15:52;;;;;;;36.00;23.77;;;9.60;74.70;;;9.08;56.84;94996.13;5032953;28;20677;-85
2021/04/18 08:18:29;;;;;;;34.45;23.85;;;9.60;74.70;;;9.06;56.71;94992.06;5026669;28;20235;-86
2021/04/18 08:20:57;;;;;;;34.95;22.30;;;9.60;74.20;;;9.04;56.60;94994.84;5060180;28;20218;-86
2021/04/18 08:23:39;;;;;;;32.33;21.13;;;9.60;74.20;;;9.02;56.46;94993.41;5025721;28;20217;-86
2021/04/18 08:26:12;;;;;;;33.42;22.48;;;9.60;74.10;;;9.03;56.62;94995.03;5031939;28;20260;-86
2021/04/18 08:29:03;;;;;;;36.70;24.42;;;9.60;74.30;;;8.95;56.89;94991.50;5040351;28;20216;-86
2021/04/18 08:31:49;;;;;;;36.20;23.77;;;9.60;74.30;;;8.96;57.14;94993.13;5035391;28;20207;-85
2021/04/18 08:34:32;;;;;;;35.30;22.65;;;9.50;74.30;;;8.98;56.96;94998.19;5049952;28;20225;-85
2021/04/18 08:37:01;;;;;;;35.15;22.13;;;9.60;74.30;;;9.01;57.14;94989.16;5042681;28;20710;-85
2021/04/18 08:39:38;;;;;;;35.08;22.33;;;9.60;74.40;;;9.01;57.09;95002.22;5057800;28;20272;-87
2021/04/18 08:42:09;;;;;;;40.55;25.67;;;9.60;74.40;;;8.97;56.57;94991.31;5027707;28;20263;-86
2021/04/18 08:44:38;;;;;;;38.33;23.67;;;9.60;74.30;;;8.94;56.77;94997.72;5018770;28;20663;-85
2021/04/18 08:47:08;;;;;;;37.15;24.75;;;9.50;74.20;;;8.90;57.13;94999.06;5062401;28;20694;-86
2021/04/18 08:49:48;;;;;;;37.40;24.73;;;9.50;74.20;;;8.87;56.75;94998.63;5031459;28;20199;-86
2021/04/18 08:52:21;;;;;;;37.03;24.33;;;9.50;74.10;;;8.86;56.83;95005.66;5035751;28;20212;-86
2021/04/18 08:54:50;;;;;;;31.77;21.63;;;9.50;74.30;;;8.89;57.15;95007.13;5051540;28;20189;-85
2021/04/18 08:57:24;;;;;;;35.90;22.23;;;9.50;74.40;;;8.87;57.09;95007.28;5038214;28;20258;-85
2021/04/18 09:00:00;;;;;;;35.55;22.73;;;9.50;74.30;;;8.86;57.19;95004.84;5054017;28;20207;-87
2021/04/18 09:02:29;;;;;;;39.90;25.05;;;9.50;74.20;;;8.78;56.58;95001.31;5054929;28;20258;-86
2021/04/18 09:05:01;;;;;;;40.50;23.95;;;9.40;74.00;;;8.73;56.81;95006.28;5036547;28;20200;-86
2021/04/18 09:07:35;;;;;;;38.38;24.23;;;9.40;74.00;;;8.67;56.98;95006.97;5041664;28;20223;-86
2021/04/18 09:10:08;;;;;;;35.83;23.30;;;9.50;74.20;;;8.62;56.69;95015.34;5053415;28;20180;-85
2021/04/18 09:12:36;;;;;;;33.28;22.05;;;9.30;73.90;;;8.61;57.13;95008.50;5002659;28;20227;-86
2021/04/18 09:15:05;;;;;;;34.75;21.63;;;9.40;74.10;;;8.56;57.00;95004.81;5037147;28;20459;-86
2021/04/18 09:17:34;;;;;;;32.58;21.60;;;9.20;74.00;;;8.61;57.05;95012.91;5051881;28;20208;-86
2021/04/18 09:20:08;;;;;;;34.60;23.13;;;9.20;74.30;;;8.59;57.11;95004.44;5033235;28;20761;-86
2021/04/18 09:22:38;;;;;;;33.97;21.75;;;9.20;74.20;;;8.62;56.97;95014.56;5034841;28;20259;-86
2021/04/18 09:25:19;;;;;;;32.25;20.58;;;9.20;74.40;;;8.67;57.43;95014.81;5018401;28;20204;-86
2021/04/18 09:27:54;;;;;;;29.75;20.30;;;9.20;74.60;;;8.74;57.45;95007.06;5013534;28;20251;-86
2021/04/18 09:30:27;;;;;;;33.42;21.42;;;9.30;74.60;;;8.78;57.04;95003.13;5040909;28;20279;-85
2021/04/18 09:32:57;;;;;;;31.38;21.45;;;9.30;74.70;;;8.81;57.03;95006.19;5034486;28;20221;-86
2021/04/18 09:35:26;;;;;;;32.65;21.80;;;9.30;74.60;;;8.85;56.87;95009.28;5048771;28;20200;-85
2021/04/18 09:38:03;;;;;;;32.42;21.30;;;9.40;74.50;;;8.91;56.83;95011.16;5054490;28;20294;-86
2021/04/18 09:40:35;;;;;;;32.08;21.00;;;9.50;74.50;;;8.93;56.87;95016.22;5038012;28;20233;-86
2021/04/18 09:43:06;;;;;;;30.50;20.15;;;9.40;74.60;;;8.99;56.96;95022.53;5035921;28;20212;-85
2021/04/18 09:45:35;;;;;;;30.13;19.92;;;9.50;74.50;;;9.03;57.00;95021.19;5049514;28;20258;-87
2021/04/18 09:48:18;;;;;;;33.05;20.60;;;9.50;74.50;;;9.02;56.93;95017.78;5035799;28;20223;-85
2021/04/18 09:51:00;;;;;;;34.25;22.98;;;9.50;74.30;;;9.01;56.42;95016.13;5037226;28;20227;-85
2021/04/18 09:53:29;;;;;;;29.63;19.38;;;9.50;74.00;;;9.02;56.69;95015.16;5034687;28;20216;-86
2021/04/18 09:56:05;;;;;;;32.55;21.48;;;9.60;74.20;;;9.00;56.32;95019.75;5027047;28;20690;-87
2021/04/18 09:58:38;;;;;;;33.13;20.92;;;9.50;73.90;;;8.98;56.44;95016.47;5041896;28;20227;-89
2021/04/18 10:01:27;;;;;;;33.47;21.10;;;9.50;73.90;;;8.93;56.72;95005.75;5049347;28;20232;-87
2021/04/18 10:03:54;;;;;;;33.22;21.08;;;9.50;73.90;;;8.96;56.68;95019.28;5018752;28;20197;-86
2021/04/18 10:06:24;;;;;;;32.45;21.60;;;9.50;73.90;;;8.96;56.63;95010.63;5053780;28;20298;-86
2021/04/18 10:09:03;;;;;;;31.20;21.50;;;9.50;73.90;;;8.97;56.36;95020.91;5037029;28;20195;-86
2021/04/18 10:11:30;;;;;;;33.03;22.08;;;9.50;73.80;;;8.93;56.29;95019.63;5053226;28;20200;-85
2021/04/18 10:13:58;;;;;;;29.20;20.25;;;9.50;73.70;;;8.95;56.62;95020.28;5017141;28;20192;-86
2021/04/18 10:16:36;;;;;;;30.85;20.40;;;9.50;73.80;;;8.99;56.46;95018.13;5029597;28;20204;-85
2021/04/18 10:19:10;;;;;;;34.05;21.17;;;9.50;73.80;;;9.03;56.50;95010.72;5031694;28;20205;-86
2021/04/18 10:21:39;;;;;;;31.08;19.98;;;9.70;74.10;;;9.10;56.49;95009.81;5052570;28;20227;-85
2021/04/18 10:24:50;;;;;;;28.58;19.38;;;9.60;74.10;;;9.15;56.76;95009.28;5026928;28;20192;-85
2021/04/18 10:27:21;;;;;;;35.40;22.05;;;9.60;74.20;;;9.16;56.43;95003.06;5036617;28;20241;-83
2021/04/18 10:29:49;;;;;;;33.50;21.83;;;9.70;73.90;;;9.15;56.58;95008.47;5018016;28;20236;-85
2021/04/18 10:32:18;;;;;;;31.38;20.95;;;9.70;73.80;;;9.16;56.07;95005.66;5020471;28;20274;-85
2021/04/18 10:34:51;;;;;;;30.55;20.38;;;9.70;73.80;;;9.19;56.28;95010.56;5026088;28;20200;-85